Terminal Aerodrome Forecast
Issued by NWS Cleveland, OH

Home | Current Version | Previous Version | Text Only | Print | Product List | Glossary Off
Versions: 1 2 3 4 5 6 7 8 9 10 11 12 13

000
FTUS41 KCLE 281100
TAFERI
TAF
KERI 281135Z 2812/2912 20014KT P6SM SCT050 OVC120 WS020/22040KT
     FM281400 20018G28KT P6SM BKN050
     FM281900 21020G32KT 5SM -SHRA OVC035
      TEMPO 2820/2823 3SM TSRA OVC025CB
     FM282300 25015G25KT P6SM -SHRA OVC025=

USA.gov is the U.S. government's official web portal to all federal, state and local government web resources and services.